Time;durP1;ratioP1;P1;durP2;ratioP2;P2;SDS_P1;SDS_P2;PMS_P1;PMS_P2;Temp;Humidity;BMP_temperature;BMP_pressure;BME280_temperature;BME280_humidity;BME280_pressure;Samples;Min_cycle;Max_cycle;Signal;HPM_P1;HPM_P2
2020/12/29 00:01:42;;;;;;;3.33;1.45;;;22.30;78.70;;;;;;5074893;28;20036;-57
2020/12/29 00:04:11;;;;;;;3.47;1.50;;;22.30;78.70;;;;;;5075218;28;20024;-58
2020/12/29 00:06:45;;;;;;;3.25;1.30;;;22.30;78.70;;;;;;5075263;28;20489;-58
2020/12/29 00:09:14;;;;;;;2.88;1.27;;;22.30;78.70;;;;;;5075299;28;20028;-59
2020/12/29 00:11:43;;;;;;;2.67;1.23;;;22.30;78.60;;;;;;5075165;28;20055;-59
2020/12/29 00:14:10;;;;;;;3.85;1.40;;;22.30;78.60;;;;;;5075037;28;20025;-54
2020/12/29 00:16:38;;;;;;;2.97;1.48;;;22.30;78.60;;;;;;5074754;28;20024;-58
2020/12/29 00:19:17;;;;;;;2.33;1.42;;;22.40;78.60;;;;;;5074393;28;20054;-61
2020/12/29 00:21:45;;;;;;;4.38;1.52;;;22.40;78.60;;;;;;5074542;28;20090;-60
2020/12/29 00:24:13;;;;;;;2.55;1.27;;;22.40;78.60;;;;;;5074832;28;20055;-58
2020/12/29 00:26:41;;;;;;;3.40;1.35;;;22.40;78.50;;;;;;5073727;28;20024;-63
2020/12/29 00:29:08;;;;;;;4.55;1.70;;;22.40;78.60;;;;;;5074966;28;20422;-58
2020/12/29 00:31:36;;;;;;;2.47;1.20;;;22.40;78.50;;;;;;5074681;28;20437;-62
2020/12/29 00:34:04;;;;;;;2.80;1.30;;;22.40;78.50;;;;;;5073965;28;20059;-58
2020/12/29 00:36:32;;;;;;;3.25;1.30;;;22.40;78.50;;;;;;5074438;28;20020;-62
2020/12/29 00:38:59;;;;;;;5.60;1.63;;;22.40;78.50;;;;;;5074721;28;20028;-61
2020/12/29 00:41:28;;;;;;;2.47;1.50;;;22.40;78.50;;;;;;5072989;28;20044;-56
2020/12/29 00:43:55;;;;;;;3.50;1.50;;;22.40;78.50;;;;;;5074672;28;20032;-57
2020/12/29 00:46:23;;;;;;;2.78;1.40;;;22.40;78.60;;;;;;5074237;28;20488;-58
2020/12/29 00:48:51;;;;;;;3.20;1.33;;;22.40;78.60;;;;;;5074195;28;20108;-58
2020/12/29 00:51:20;;;;;;;3.63;1.33;;;22.40;78.50;;;;;;5074856;28;20020;-59
2020/12/29 00:53:48;;;;;;;2.20;1.38;;;22.40;78.60;;;;;;5073991;28;20391;-61
2020/12/29 00:56:16;;;;;;;2.83;1.38;;;22.40;78.60;;;;;;5074180;28;20033;-62
2020/12/29 00:58:44;;;;;;;4.65;1.38;;;22.40;78.60;;;;;;5073988;28;20024;-60
2020/12/29 01:01:11;;;;;;;2.42;1.20;;;22.40;78.60;;;;;;5073938;28;20032;-58
2020/12/29 01:03:39;;;;;;;2.55;1.23;;;22.40;78.60;;;;;;5073952;28;20021;-56
2020/12/29 01:06:08;;;;;;;2.80;1.17;;;22.40;78.70;;;;;;5070335;28;20024;-57
2020/12/29 01:08:35;;;;;;;3.20;1.65;;;22.40;78.60;;;;;;5073869;28;20028;-59
2020/12/29 01:11:03;;;;;;;2.88;1.20;;;22.40;78.70;;;;;;5074093;28;20116;-60
2020/12/29 01:13:30;;;;;;;3.50;1.08;;;22.40;78.70;;;;;;5073814;28;20028;-62
2020/12/29 01:15:58;;;;;;;5.60;1.52;;;22.40;78.70;;;;;;5072982;28;20028;-61
2020/12/29 01:18:25;;;;;;;3.50;1.42;;;22.40;78.80;;;;;;5073284;28;20034;-61
2020/12/29 01:20:53;;;;;;;3.20;1.15;;;22.40;78.80;;;;;;5073778;28;20052;-61
2020/12/29 01:23:20;;;;;;;4.05;1.40;;;22.40;79.00;;;;;;5074152;28;20112;-64
2020/12/29 01:25:48;;;;;;;2.33;1.17;;;22.40;79.10;;;;;;5074267;28;20499;-64
2020/12/29 01:28:15;;;;;;;4.50;1.80;;;22.40;79.00;;;;;;5074141;28;20064;-56
2020/12/29 01:30:43;;;;;;;2.92;1.40;;;22.40;79.10;;;;;;5073902;28;20029;-59
2020/12/29 01:33:11;;;;;;;2.33;1.02;;;22.40;79.10;;;;;;5073645;28;20017;-58
2020/12/29 01:35:38;;;;;;;5.65;1.30;;;22.40;79.10;;;;;;5061508;28;20035;-61
2020/12/29 01:38:06;;;;;;;3.40;1.10;;;22.50;79.10;;;;;;5069026;28;20487;-63
2020/12/29 01:40:36;;;;;;;2.72;1.23;;;22.50;79.30;;;;;;5072268;28;20036;-61
2020/12/29 01:43:04;;;;;;;2.47;1.10;;;22.50;79.20;;;;;;5072039;28;20476;-59
2020/12/29 01:45:31;;;;;;;4.18;1.42;;;22.50;79.00;;;;;;5066947;28;20090;-64
2020/12/29 01:47:59;;;;;;;5.32;1.38;;;22.50;79.00;;;;;;5071605;28;20410;-58
2020/12/29 01:50:26;;;;;;;4.20;1.60;;;22.50;78.90;;;;;;5071995;28;20047;-53
2020/12/29 01:53:02;;;;;;;4.95;1.83;;;22.50;78.80;;;;;;5072308;28;20017;-59
2020/12/29 01:55:31;;;;;;;3.25;1.63;;;22.60;78.90;;;;;;5063431;28;20055;-62
2020/12/29 01:58:01;;;;;;;2.72;1.30;;;22.60;78.80;;;;;;5071516;28;20169;-63
2020/12/29 02:00:29;;;;;;;3.00;1.50;;;22.60;78.80;;;;;;5071349;28;20039;-62
2020/12/29 02:03:00;;;;;;;4.72;1.80;;;22.60;78.70;;;;;;5071426;28;20085;-59
2020/12/29 02:05:28;;;;;;;6.18;2.08;;;22.60;79.30;;;;;;5064992;28;20112;-60
2020/12/29 02:07:57;;;;;;;4.63;1.67;;;22.60;78.70;;;;;;5065843;28;20072;-62
2020/12/29 02:10:25;;;;;;;4.88;1.73;;;22.70;78.80;;;;;;5071721;28;20024;-59
2020/12/29 02:12:52;;;;;;;4.47;2.05;;;22.70;78.70;;;;;;5072006;28;20047;-60
2020/12/29 02:15:20;;;;;;;4.05;1.30;;;22.70;78.70;;;;;;5066366;28;20028;-61
2020/12/29 02:17:47;;;;;;;2.42;1.27;;;22.70;78.70;;;;;;5070790;28;20024;-61
2020/12/29 02:20:14;;;;;;;3.05;1.40;;;22.70;78.70;;;;;;5070470;28;20048;-61
2020/12/29 02:22:42;;;;;;;8.15;1.60;;;22.70;78.60;;;;;;5071365;28;20363;-61
2020/12/29 02:25:11;;;;;;;5.03;1.85;;;22.70;78.70;;;;;;5066512;28;20522;-61
2020/12/29 02:27:50;;;;;;;2.03;1.52;;;22.70;78.80;;;;;;5070698;28;20478;-64
2020/12/29 02:30:21;;;;;;;4.55;1.10;;;22.70;78.80;;;;;;5071111;28;20031;-60
2020/12/29 02:32:48;;;;;;;5.18;1.27;;;22.70;78.60;;;;;;5070784;28;20017;-60
2020/12/29 02:35:16;;;;;;;2.15;1.40;;;22.70;78.70;;;;;;5065401;28;20490;-63
2020/12/29 02:37:44;;;;;;;2.97;1.65;;;22.70;78.70;;;;;;5070789;28;20021;-63
2020/12/29 02:40:12;;;;;;;4.53;1.33;;;22.70;78.80;;;;;;5070748;28;20070;-58
2020/12/29 02:42:40;;;;;;;3.90;1.80;;;22.70;78.90;;;;;;5071379;28;20020;-58
2020/12/29 02:45:10;;;;;;;4.03;1.45;;;22.80;78.80;;;;;;5065718;28;20173;-62
2020/12/29 02:47:37;;;;;;;9.60;2.53;;;22.80;78.80;;;;;;5069043;28;20024;-60
2020/12/29 02:50:06;;;;;;;14.05;3.08;;;22.80;78.70;;;;;;5070474;28;20048;-55
2020/12/29 02:52:34;;;;;;;10.48;3.35;;;22.80;78.70;;;;;;5070936;28;20118;-60
2020/12/29 02:55:01;;;;;;;13.48;3.78;;;22.80;78.50;;;;;;5066378;28;20120;-58
2020/12/29 02:57:29;;;;;;;13.63;3.65;;;22.90;78.60;;;;;;5070742;28;20106;-56
2020/12/29 02:59:56;;;;;;;17.50;4.75;;;22.90;78.70;;;;;;5070795;28;20071;-57
2020/12/29 03:02:23;;;;;;;16.17;4.68;;;22.90;78.70;;;;;;5070453;28;20082;-55
2020/12/29 03:04:51;;;;;;;14.68;5.03;;;22.90;78.70;;;;;;5065300;28;20561;-60
2020/12/29 03:07:18;;;;;;;16.80;4.40;;;22.90;78.50;;;;;;5066688;28;20040;-62
2020/12/29 03:09:45;;;;;;;10.85;3.05;;;22.90;78.50;;;;;;5070273;28;20047;-61
2020/12/29 03:12:13;;;;;;;15.40;4.00;;;22.90;78.40;;;;;;5070421;28;20029;-62
2020/12/29 03:14:40;;;;;;;16.58;4.35;;;22.90;78.50;;;;;;5065971;28;20107;-60
2020/12/29 03:17:08;;;;;;;18.00;4.22;;;22.90;78.70;;;;;;5070460;28;20108;-61
2020/12/29 03:19:35;;;;;;;18.83;5.38;;;23.00;78.60;;;;;;5069558;28;20047;-56
2020/12/29 03:22:03;;;;;;;25.63;6.78;;;23.00;78.50;;;;;;5070524;28;20028;-62
2020/12/29 03:24:30;;;;;;;25.00;6.82;;;23.00;78.50;;;;;;5067822;28;20021;-61
2020/12/29 03:26:58;;;;;;;28.90;7.78;;;23.00;78.50;;;;;;5067528;28;20207;-64
2020/12/29 03:29:25;;;;;;;21.40;6.07;;;23.00;78.50;;;;;;5070174;28;20497;-66
2020/12/29 03:31:53;;;;;;;20.15;5.53;;;23.00;78.40;;;;;;5070148;28;20517;-61
2020/12/29 03:34:29;;;;;;;17.33;4.80;;;23.00;78.30;;;;;;5071691;28;20047;-62
2020/12/29 03:36:56;;;;;;;18.92;4.70;;;23.10;78.40;;;;;;5071865;28;20020;-63
2020/12/29 03:39:23;;;;;;;27.27;5.18;;;23.10;78.30;;;;;;5071683;28;20066;-64
2020/12/29 03:41:51;;;;;;;15.07;4.60;;;23.10;78.30;;;;;;5071716;28;20332;-60
2020/12/29 03:44:18;;;;;;;17.88;5.05;;;23.10;78.10;;;;;;5070637;28;20077;-63
2020/12/29 03:46:46;;;;;;;19.23;5.05;;;23.10;78.00;;;;;;5072010;28;20392;-62
2020/12/29 03:49:13;;;;;;;16.42;5.53;;;23.10;78.00;;;;;;5071693;28;20017;-62
2020/12/29 03:51:40;;;;;;;18.65;6.07;;;23.10;78.10;;;;;;5070227;28;20021;-61
2020/12/29 03:54:08;;;;;;;22.17;5.28;;;23.10;78.30;;;;;;5071948;28;20028;-60
2020/12/29 03:56:35;;;;;;;18.73;4.68;;;23.10;78.30;;;;;;5071787;28;20017;-62
2020/12/29 03:59:02;;;;;;;21.33;5.32;;;23.00;78.10;;;;;;5070724;28;20352;-60
2020/12/29 04:01:30;;;;;;;16.63;4.90;;;23.00;78.10;;;;;;5071421;28;20115;-61
2020/12/29 04:03:57;;;;;;;16.90;5.20;;;23.10;78.20;;;;;;5071294;28;20036;-59
2020/12/29 04:06:25;;;;;;;16.65;4.82;;;23.00;78.30;;;;;;5071024;28;20091;-62
2020/12/29 04:08:52;;;;;;;22.10;5.10;;;23.10;78.30;;;;;;5071344;28;20035;-60
2020/12/29 04:11:20;;;;;;;17.77;5.57;;;23.10;78.40;;;;;;5071495;28;20052;-60
2020/12/29 04:13:47;;;;;;;17.77;5.05;;;23.00;78.40;;;;;;5071392;28;20387;-62
2020/12/29 04:16:15;;;;;;;15.55;4.95;;;23.00;78.30;;;;;;5071459;28;20017;-64
2020/12/29 04:18:42;;;;;;;15.20;4.50;;;23.00;78.20;;;;;;5070886;28;20058;-64
2020/12/29 04:21:12;;;;;;;13.43;4.45;;;23.10;78.10;;;;;;5071205;28;20080;-52
2020/12/29 04:23:39;;;;;;;16.83;5.05;;;23.00;78.20;;;;;;5071182;28;20074;-59
2020/12/29 04:26:14;;;;;;;13.55;4.88;;;23.00;78.30;;;;;;5071431;28;20056;-59
2020/12/29 04:28:42;;;;;;;15.70;4.55;;;23.10;78.30;;;;;;5073910;28;20467;-57
2020/12/29 04:31:18;;;;;;;12.80;4.70;;;23.00;78.20;;;;;;5073356;28;20028;-53
2020/12/29 04:33:48;;;;;;;12.32;3.83;;;23.10;78.20;;;;;;5073657;28;20441;-58
2020/12/29 04:36:19;;;;;;;13.23;3.85;;;23.10;78.10;;;;;;5074858;28;20111;-59
2020/12/29 04:38:46;;;;;;;14.10;4.15;;;23.10;78.30;;;;;;5075034;28;20364;-62
2020/12/29 04:41:14;;;;;;;15.60;4.60;;;23.10;78.40;;;;;;5074712;28;20044;-58
2020/12/29 04:43:43;;;;;;;16.05;4.93;;;23.00;78.40;;;;;;5074436;28;20031;-58
2020/12/29 04:46:11;;;;;;;14.52;4.47;;;23.10;78.40;;;;;;5074737;28;20487;-60
2020/12/29 04:48:41;;;;;;;12.75;4.25;;;23.10;78.50;;;;;;5074169;28;20103;-57
2020/12/29 04:51:09;;;;;;;13.05;4.25;;;23.00;78.40;;;;;;5074680;28;20412;-60
2020/12/29 04:53:37;;;;;;;12.20;4.32;;;23.00;78.50;;;;;;5074345;28;20028;-58
2020/12/29 04:56:09;;;;;;;12.48;4.10;;;23.00;78.40;;;;;;5074396;28;20047;-63
2020/12/29 04:58:37;;;;;;;;;;;23.00;78.60;;;;;;5074626;28;20483;-62
2020/12/29 05:01:07;;;;;;;15.82;4.28;;;23.00;78.60;;;;;;5074393;28;19935;-62
2020/12/29 05:03:48;;;;;;;15.75;3.92;;;23.00;78.60;;;;;;5074539;28;20020;-57
2020/12/29 05:06:16;;;;;;;15.00;4.07;;;23.00;78.70;;;;;;5060150;28;20044;-67
2020/12/29 05:08:48;;;;;;;13.25;4.05;;;23.00;78.50;;;;;;5072559;28;20509;-54
2020/12/29 05:11:17;;;;;;;11.40;3.75;;;23.00;78.70;;;;;;5072576;28;20032;-56
2020/12/29 05:13:47;;;;;;;15.82;3.35;;;23.00;78.60;;;;;;5070868;28;20086;-62
2020/12/29 05:16:15;;;;;;;12.20;3.53;;;23.00;78.60;;;;;;5067986;28;20035;-58
2020/12/29 05:18:44;;;;;;;9.75;3.40;;;23.00;78.60;;;;;;5071868;28;20796;-60
2020/12/29 05:21:11;;;;;;;13.95;4.57;;;23.00;78.60;;;;;;5071528;28;20102;-59
2020/12/29 05:23:42;;;;;;;11.52;3.75;;;23.00;78.60;;;;;;5072338;28;20077;-61
2020/12/29 05:26:10;;;;;;;8.25;3.17;;;23.00;78.40;;;;;;5068309;28;21397;-63
2020/12/29 05:28:38;;;;;;;13.00;4.22;;;23.00;78.50;;;;;;5072606;28;20047;-62
2020/12/29 05:31:06;;;;;;;11.40;3.53;;;23.00;78.50;;;;;;5072759;28;20037;-62
2020/12/29 05:33:33;;;;;;;12.68;3.88;;;23.00;78.50;;;;;;5070440;28;20056;-55
2020/12/29 05:36:02;;;;;;;12.88;3.63;;;23.10;78.40;;;;;;5066991;28;20032;-57
2020/12/29 05:38:30;;;;;;;11.95;3.70;;;23.10;78.40;;;;;;5071218;28;20390;-59
2020/12/29 05:40:59;;;;;;;11.77;3.28;;;23.10;78.20;;;;;;5072036;28;20032;-61
2020/12/29 05:43:31;;;;;;;4.88;1.58;;;23.10;78.30;;;;;;5070244;28;20032;-63
2020/12/29 05:46:07;;;;;;;10.75;5.82;;;22.80;74.60;;;;;;5054201;28;20466;-61
2020/12/29 05:48:35;;;;;;;4.80;1.58;;;22.50;76.50;;;;;;5071778;28;20036;-62
2020/12/29 05:51:13;;;;;;;5.43;3.63;;;22.30;76.90;;;;;;5073343;28;20035;-63
2020/12/29 05:53:42;;;;;;;4.22;2.60;;;22.00;78.40;;;;;;5073196;28;20031;-63
2020/12/29 05:56:09;;;;;;;9.93;4.88;;;21.90;78.40;;;;;;5072873;28;20028;-64
2020/12/29 05:58:37;;;;;;;7.60;3.55;;;22.00;80.10;;;;;;5072751;28;20456;-62
2020/12/29 06:01:05;;;;;;;9.10;6.22;;;22.20;77.90;;;;;;5073236;28;20036;-62
2020/12/29 06:03:33;;;;;;;6.95;2.50;;;22.20;78.00;;;;;;5072519;28;20479;-63
2020/12/29 06:06:03;;;;;;;7.30;3.20;;;22.20;77.70;;;;;;5072604;28;20028;-64
2020/12/29 06:08:37;;;;;;;4.15;1.98;;;22.10;78.40;;;;;;5072488;28;20097;-63
2020/12/29 06:11:24;;;;;;;9.88;5.07;;;21.90;79.20;;;;;;5072439;28;20335;-62
2020/12/29 06:13:52;;;;;;;12.18;9.05;;;22.10;79.50;;;;;;5072373;28;20068;-63
2020/12/29 06:16:25;;;;;;;7.18;4.15;;;22.00;78.40;;;;;;5072704;28;20456;-62
2020/12/29 06:18:59;;;;;;;3.80;2.38;;;21.90;78.90;;;;;;5072731;28;20433;-61
2020/12/29 06:21:29;;;;;;;3.63;2.45;;;21.80;79.10;;;;;;5072289;28;20044;-62
2020/12/29 06:24:00;;;;;;;6.50;4.03;;;21.70;79.80;;;;;;5072500;28;20475;-61
2020/12/29 06:26:40;;;;;;;5.90;2.50;;;21.70;80.60;;;;;;5071328;28;20035;-61
2020/12/29 06:29:11;;;;;;;5.88;2.08;;;21.60;80.10;;;;;;5070617;28;20103;-64
2020/12/29 06:31:39;;;;;;;12.25;10.10;;;21.60;80.50;;;;;;5072062;28;20078;-63
2020/12/29 06:34:12;;;;;;;5.35;4.35;;;21.60;81.60;;;;;;5071896;28;20029;-61
2020/12/29 06:36:41;;;;;;;12.52;7.40;;;21.60;81.70;;;;;;5072128;28;20374;-66
2020/12/29 06:39:11;;;;;;;6.10;3.55;;;21.70;81.30;;;;;;5072273;28;20355;-62
2020/12/29 06:41:41;;;;;;;10.05;7.75;;;21.70;80.20;;;;;;5071637;28;20546;-62
2020/12/29 06:44:12;;;;;;;8.18;5.43;;;21.80;80.50;;;;;;5071828;28;20041;-63
2020/12/29 06:46:39;;;;;;;11.43;5.40;;;22.00;81.20;;;;;;5072150;28;20039;-63
2020/12/29 06:49:24;;;;;;;6.90;2.90;;;21.70;81.10;;;;;;5072170;28;20094;-61
2020/12/29 06:52:17;;;;;;;4.15;1.90;;;21.70;80.40;;;;;;5071805;28;20028;-62
2020/12/29 06:55:17;;;;;;;5.70;1.80;;;21.60;81.00;;;;;;5072390;28;20016;-63
2020/12/29 06:57:52;;;;;;;12.20;2.85;;;21.50;82.10;;;;;;5066681;28;20487;-61
2020/12/29 07:00:24;;;;;;;4.18;1.95;;;21.30;81.60;;;;;;5071822;28;20394;-62
2020/12/29 07:02:54;;;;;;;3.92;1.75;;;21.30;83.50;;;;;;5070065;28;20123;-61
2020/12/29 07:05:22;;;;;;;14.35;3.22;;;21.30;82.40;;;;;;5071283;28;20025;-66
2020/12/29 07:08:02;;;;;;;4.70;2.97;;;21.30;83.90;;;;;;5071969;28;20024;-66
2020/12/29 07:10:38;;;;;;;4.03;2.35;;;21.60;83.60;;;;;;5071964;28;20029;-63
2020/12/29 07:13:17;;;;;;;5.95;3.45;;;21.80;82.80;;;;;;5071775;28;20469;-63
2020/12/29 07:15:55;;;;;;;5.15;2.33;;;21.90;82.00;;;;;;5071757;28;20028;-62
2020/12/29 07:18:24;;;;;;;3.60;2.33;;;22.10;81.40;;;;;;5070094;28;20024;-62
2020/12/29 07:20:56;;;;;;;5.85;3.03;;;22.20;81.20;;;;;;5071274;28;20136;-66
2020/12/29 07:23:28;;;;;;;5.25;2.72;;;22.20;80.80;;;;;;5053567;28;20021;-62
2020/12/29 07:26:02;;;;;;;7.88;3.38;;;22.30;80.70;;;;;;5071999;28;20032;-64
2020/12/29 07:28:30;;;;;;;6.20;2.47;;;22.30;80.70;;;;;;5061215;28;20021;-55
2020/12/29 07:30:58;;;;;;;3.83;2.33;;;22.40;81.60;;;;;;5066271;28;20036;-66
2020/12/29 07:33:26;;;;;;;8.18;2.45;;;22.40;81.20;;;;;;5070632;28;20031;-61
2020/12/29 07:35:55;;;;;;;6.63;2.35;;;22.50;81.20;;;;;;5070453;28;20042;-62
2020/12/29 07:38:24;;;;;;;5.65;1.90;;;22.50;80.80;;;;;;5069400;28;20082;-59
2020/12/29 07:40:52;;;;;;;7.75;2.70;;;22.50;80.50;;;;;;5066431;28;20040;-61
2020/12/29 07:43:19;;;;;;;6.72;2.40;;;22.50;80.40;;;;;;5066979;28;20471;-60
2020/12/29 07:45:47;;;;;;;6.50;2.50;;;22.50;80.20;;;;;;5070644;28;20111;-55
2020/12/29 07:48:14;;;;;;;3.47;1.98;;;22.50;80.10;;;;;;5069150;28;20031;-61
2020/12/29 07:50:41;;;;;;;6.10;2.30;;;22.60;80.00;;;;;;5065253;28;20142;-58
2020/12/29 07:53:11;;;;;;;3.65;2.30;;;22.60;79.90;;;;;;5070506;28;20506;-50
2020/12/29 07:55:43;;;;;;;5.07;2.15;;;22.60;79.70;;;;;;5070064;28;20032;-65
2020/12/29 07:58:11;;;;;;;4.25;2.38;;;22.60;80.20;;;;;;5068918;28;20017;-66
2020/12/29 08:00:40;;;;;;;3.03;1.83;;;22.60;79.60;;;;;;5065695;28;20048;-61
2020/12/29 08:03:09;;;;;;;4.85;1.88;;;22.60;79.50;;;;;;5070899;28;20056;-63
2020/12/29 08:05:37;;;;;;;5.32;2.08;;;22.60;79.40;;;;;;5073387;28;20348;-59
2020/12/29 08:08:07;;;;;;;3.08;1.67;;;22.60;79.50;;;;;;5072059;28;20462;-62
2020/12/29 08:10:36;;;;;;;5.35;1.77;;;22.70;79.50;;;;;;5068314;28;20554;-59
2020/12/29 08:13:09;;;;;;;9.20;1.83;;;22.60;79.50;;;;;;5072880;28;20498;-61
2020/12/29 08:15:42;;;;;;;4.03;2.00;;;22.70;79.40;;;;;;5072520;28;20383;-62
2020/12/29 08:18:15;;;;;;;3.33;2.17;;;22.70;79.30;;;;;;5072958;28;20032;-60
2020/12/29 08:20:49;;;;;;;3.05;1.60;;;22.70;79.30;;;;;;5068976;28;20656;-63
2020/12/29 08:23:18;;;;;;;4.28;2.05;;;22.70;79.30;;;;;;5074003;28;20536;-62
2020/12/29 08:25:56;;;;;;;4.75;2.30;;;22.70;79.30;;;;;;5072112;28;20027;-58
2020/12/29 08:28:37;;;;;;;3.40;2.13;;;22.80;79.30;;;;;;5072282;28;20098;-62
2020/12/29 08:31:08;;;;;;;5.00;2.00;;;22.70;79.30;;;;;;5067444;28;20025;-64
2020/12/29 08:33:38;;;;;;;3.22;1.50;;;22.70;79.40;;;;;;5069894;28;20021;-60
2020/12/29 08:36:08;;;;;;;4.60;1.85;;;22.70;79.50;;;;;;5072699;28;20031;-59
2020/12/29 08:39:28;;;;;;;3.28;2.13;;;22.80;79.70;;;;;;5071172;28;20124;-64
2020/12/29 08:42:01;;;;;;;3.30;1.73;;;22.80;79.70;;;;;;5064353;28;20045;-63
2020/12/29 08:44:31;;;;;;;3.90;1.50;;;22.80;79.80;;;;;;5074073;28;20032;-64
2020/12/29 08:47:08;;;;;;;4.97;1.60;;;22.80;79.70;;;;;;5073788;28;20044;-64
2020/12/29 08:49:35;;;;;;;4.40;1.50;;;22.80;79.70;;;;;;5072875;28;20024;-63
2020/12/29 08:52:03;;;;;;;4.03;1.48;;;22.80;79.70;;;;;;5069941;28;20020;-65
2020/12/29 08:54:38;;;;;;;3.40;1.45;;;22.80;79.70;;;;;;5074159;28;20028;-65
2020/12/29 08:57:07;;;;;;;3.33;1.50;;;22.80;79.70;;;;;;5071789;28;20031;-65
2020/12/29 08:59:40;;;;;;;2.60;1.30;;;22.80;79.90;;;;;;5070748;28;20036;-65
2020/12/29 09:02:08;;;;;;;3.50;1.17;;;22.70;80.00;;;;;;5068454;28;20391;-64
2020/12/29 09:04:38;;;;;;;2.72;1.30;;;22.70;80.20;;;;;;5072421;28;20094;-63
2020/12/29 09:07:13;;;;;;;3.00;1.27;;;22.80;80.50;;;;;;5072918;28;20028;-64
2020/12/29 09:10:03;;;;;;;3.15;1.48;;;22.70;80.40;;;;;;5072151;28;20115;-64
2020/12/29 09:12:32;;;;;;;3.17;1.65;;;22.70;80.80;;;;;;5067846;28;20021;-63
2020/12/29 09:15:08;;;;;;;2.67;1.30;;;22.70;80.90;;;;;;5072452;28;20021;-63
2020/12/29 09:17:41;;;;;;;6.10;1.40;;;22.70;81.30;;;;;;5071464;28;20046;-59
2020/12/29 09:20:19;;;;;;;4.00;1.58;;;22.70;81.30;;;;;;5071875;28;20055;-58
2020/12/29 09:22:54;;;;;;;5.90;2.03;;;22.70;81.50;;;;;;5071091;28;20363;-61
2020/12/29 09:25:36;;;;;;;4.78;1.70;;;22.70;81.50;;;;;;5070984;28;20028;-65
2020/12/29 09:28:18;;;;;;;5.30;2.17;;;22.70;81.50;;;;;;5071048;28;20028;-55
2020/12/29 09:31:10;;;;;;;3.72;2.10;;;22.70;81.60;;;;;;5067280;28;20184;-63
2020/12/29 09:33:39;;;;;;;11.55;2.65;;;22.70;81.70;;;;;;5070414;28;20108;-61
2020/12/29 09:36:18;;;;;;;10.15;2.88;;;22.70;82.20;;;;;;5072580;28;20120;-62
2020/12/29 09:38:47;;;;;;;11.40;3.25;;;22.70;82.30;;;;;;5071864;28;20047;-64
2020/12/29 09:41:14;;;;;;;10.75;4.20;;;22.80;82.40;;;;;;5067397;28;20028;-63
2020/12/29 09:43:44;;;;;;;11.70;3.22;;;22.70;82.70;;;;;;5070834;28;20024;-56
2020/12/29 09:46:11;;;;;;;10.48;3.92;;;22.70;82.90;;;;;;5070443;28;20099;-64
2020/12/29 09:48:39;;;;;;;14.80;3.83;;;22.70;82.60;;;;;;5068480;28;20020;-63
2020/12/29 09:51:06;;;;;;;12.13;4.10;;;22.70;82.40;;;;;;5065910;28;20033;-65
2020/12/29 09:53:34;;;;;;;15.45;4.18;;;22.70;82.40;;;;;;5066485;28;20059;-62
2020/12/29 09:56:01;;;;;;;11.90;4.15;;;22.70;82.30;;;;;;5070500;28;20463;-63
2020/12/29 09:58:28;;;;;;;10.27;3.65;;;22.70;82.40;;;;;;5070545;28;20025;-63
2020/12/29 10:00:56;;;;;;;12.55;3.78;;;22.70;82.40;;;;;;5067496;28;20044;-59
2020/12/29 10:03:25;;;;;;;14.95;4.80;;;22.70;82.40;;;;;;5071907;28;20036;-60
2020/12/29 10:05:52;;;;;;;17.40;3.97;;;22.60;82.40;;;;;;5070879;28;20068;-56
2020/12/29 10:08:19;;;;;;;11.30;3.70;;;22.60;82.40;;;;;;5071335;28;20364;-59
2020/12/29 10:10:47;;;;;;;11.90;3.67;;;22.60;82.50;;;;;;5067028;28;20863;-60
2020/12/29 10:13:14;;;;;;;12.27;3.67;;;22.60;82.40;;;;;;5070694;28;20356;-58
2020/12/29 10:15:42;;;;;;;7.72;3.45;;;22.60;82.70;;;;;;5071406;28;20028;-59
2020/12/29 10:18:09;;;;;;;12.75;3.58;;;22.50;82.90;;;;;;5071230;28;20099;-60
2020/12/29 10:20:36;;;;;;;11.63;3.45;;;22.50;82.60;;;;;;5067284;28;20064;-60
2020/12/29 10:23:04;;;;;;;14.57;4.32;;;22.50;82.90;;;;;;5071945;28;20103;-62
2020/12/29 10:25:32;;;;;;;10.82;3.38;;;22.60;82.70;;;;;;5071063;28;20028;-62
2020/12/29 10:27:59;;;;;;;7.40;2.50;;;22.60;82.50;;;;;;5070758;28;20023;-56
2020/12/29 10:30:27;;;;;;;10.63;3.45;;;22.50;82.50;;;;;;5067515;28;20043;-61
2020/12/29 10:32:54;;;;;;;8.88;3.33;;;22.50;82.60;;;;;;5070828;28;20020;-51
2020/12/29 10:35:21;;;;;;;7.25;2.97;;;22.50;82.50;;;;;;5071876;28;20024;-52
2020/12/29 10:37:49;;;;;;;9.95;3.08;;;22.50;82.40;;;;;;5070058;28;20043;-52
2020/12/29 10:40:17;;;;;;;9.45;3.53;;;22.50;82.40;;;;;;5068467;28;20069;-61
2020/12/29 10:42:44;;;;;;;7.30;2.45;;;22.50;82.40;;;;;;5069510;28;20178;-57
2020/12/29 10:45:11;;;;;;;10.98;3.53;;;22.50;82.40;;;;;;5070412;28;20082;-59
2020/12/29 10:47:42;;;;;;;7.25;2.55;;;22.50;82.40;;;;;;5070926;28;20379;-57
2020/12/29 10:50:09;;;;;;;8.50;2.97;;;22.50;82.40;;;;;;5070946;28;20020;-65
2020/12/29 10:52:36;;;;;;;8.52;2.85;;;22.50;82.40;;;;;;5067824;28;20038;-57
2020/12/29 10:55:04;;;;;;;9.68;3.60;;;22.50;82.30;;;;;;5071203;28;20039;-61
2020/12/29 10:57:33;;;;;;;6.05;2.28;;;22.50;82.20;;;;;;5070982;28;20479;-51
2020/12/29 11:00:00;;;;;;;6.88;2.88;;;22.50;82.30;;;;;;5068747;28;20471;-54
2020/12/29 11:02:28;;;;;;;5.82;2.60;;;22.50;82.20;;;;;;5066581;28;20211;-62
2020/12/29 11:04:55;;;;;;;6.40;2.42;;;22.50;82.20;;;;;;5070557;28;20021;-62
2020/12/29 11:07:22;;;;;;;7.10;2.95;;;22.50;82.20;;;;;;5071199;28;20031;-61
2020/12/29 11:09:50;;;;;;;8.15;2.60;;;22.50;82.10;;;;;;5071140;28;20043;-61
2020/12/29 11:12:17;;;;;;;8.43;2.90;;;22.50;82.10;;;;;;5066693;28;20043;-60
2020/12/29 11:14:45;;;;;;;7.20;2.75;;;22.50;82.10;;;;;;5070994;28;20031;-61
2020/12/29 11:17:12;;;;;;;10.88;3.25;;;22.50;82.10;;;;;;5071173;28;20036;-55
2020/12/29 11:19:39;;;;;;;7.38;2.53;;;22.50;82.10;;;;;;5069920;28;20079;-56
2020/12/29 11:22:07;;;;;;;7.43;2.72;;;22.50;82.10;;;;;;5066177;28;20458;-52
2020/12/29 11:24:34;;;;;;;9.55;2.92;;;22.50;82.00;;;;;;5070742;28;20024;-62
2020/12/29 11:27:04;;;;;;;7.60;2.67;;;22.50;81.90;;;;;;5071155;28;20024;-59
2020/12/29 11:29:32;;;;;;;6.38;2.20;;;22.50;82.00;;;;;;5069869;28;20039;-57
2020/12/29 11:31:59;;;;;;;6.90;2.58;;;22.50;82.90;;;;;;5066314;28;20024;-56
2020/12/29 11:34:26;;;;;;;6.30;2.45;;;22.50;82.00;;;;;;5070143;28;20032;-59
2020/12/29 11:36:54;;;;;;;3.65;1.75;;;22.50;82.00;;;;;;5072873;28;20020;-64
2020/12/29 11:39:21;;;;;;;5.00;2.30;;;22.50;82.10;;;;;;5074420;28;20013;-61
2020/12/29 11:41:52;;;;;;;8.18;2.92;;;22.50;82.00;;;;;;5069161;28;20028;-56
2020/12/29 11:44:20;;;;;;;6.25;2.35;;;22.50;82.10;;;;;;5074494;28;20012;-61
2020/12/29 11:46:48;;;;;;;6.00;2.50;;;22.50;82.00;;;;;;5074649;28;20025;-61
2020/12/29 11:49:15;;;;;;;6.60;2.47;;;22.50;82.10;;;;;;5074367;28;20016;-54
2020/12/29 11:51:47;;;;;;;9.27;2.10;;;22.40;82.10;;;;;;5069190;28;20081;-56
2020/12/29 11:54:14;;;;;;;;;;;22.40;82.20;;;;;;5075594;28;20111;-58
2020/12/29 11:56:41;;;;;;;5.18;1.73;;;22.40;82.10;;;;;;5074528;28;19909;-57
2020/12/29 11:59:09;;;;;;;6.65;2.55;;;22.40;82.10;;;;;;5076041;28;20024;-58
2020/12/29 12:01:39;;;;;;;9.45;2.38;;;22.40;82.10;;;;;;5075359;28;20075;-56
2020/12/29 12:04:06;;;;;;;4.45;1.98;;;22.40;82.20;;;;;;5075802;28;20056;-58
2020/12/29 12:06:37;;;;;;;6.30;2.05;;;22.40;82.30;;;;;;5075061;28;20149;-54
2020/12/29 12:09:05;;;;;;;8.02;2.20;;;22.30;82.30;;;;;;5075179;28;20027;-55
2020/12/29 12:11:33;;;;;;;7.70;2.53;;;22.30;82.30;;;;;;5075400;28;20381;-59
2020/12/29 12:14:00;;;;;;;8.82;2.40;;;22.30;82.40;;;;;;5073740;28;20021;-56
2020/12/29 12:16:28;;;;;;;7.80;2.30;;;22.30;82.50;;;;;;5063549;28;20028;-60
2020/12/29 12:18:55;;;;;;;7.25;1.70;;;22.30;83.10;;;;;;5071993;28;20021;-62
2020/12/29 12:21:32;;;;;;;7.38;1.83;;;22.20;83.10;;;;;;5073382;28;20049;-61
2020/12/29 12:24:00;;;;;;;7.38;2.83;;;22.20;83.30;;;;;;5074196;28;20427;-62
2020/12/29 12:26:28;;;;;;;5.50;2.22;;;22.20;83.40;;;;;;5068901;28;20441;-63
2020/12/29 12:28:56;;;;;;;4.25;1.95;;;22.20;83.30;;;;;;5074103;28;20025;-63
2020/12/29 12:31:24;;;;;;;7.43;2.08;;;22.20;83.20;;;;;;5073452;28;20020;-61
2020/12/29 12:33:51;;;;;;;6.72;1.98;;;22.20;83.30;;;;;;5074768;28;20070;-62
2020/12/29 12:36:19;;;;;;;6.10;2.10;;;22.20;83.30;;;;;;5075333;28;20086;-63
2020/12/29 12:38:46;;;;;;;4.47;1.95;;;22.20;83.30;;;;;;5074999;28;20024;-65
2020/12/29 12:41:14;;;;;;;6.88;1.90;;;22.10;83.20;;;;;;5074601;28;20090;-60
2020/12/29 12:43:43;;;;;;;6.10;1.80;;;22.10;83.80;;;;;;5075216;28;20408;-64
2020/12/29 12:46:11;;;;;;;7.53;2.10;;;22.10;83.30;;;;;;5074963;28;20024;-61
2020/12/29 12:48:41;;;;;;;8.07;2.15;;;22.10;83.30;;;;;;5074303;28;20016;-64
2020/12/29 12:51:09;;;;;;;7.25;2.20;;;22.10;83.30;;;;;;5074906;28;20605;-64
2020/12/29 12:53:36;;;;;;;7.15;2.08;;;22.10;83.30;;;;;;5074783;28;20029;-63
2020/12/29 12:56:04;;;;;;;5.35;1.70;;;22.10;83.40;;;;;;5074955;28;20394;-65